Bellingham, Washington
Current Conditions -  °F | °C
As of 10:53 PM on Saturday 22 Nov 2014 (Local Time) from KBLI Reporting Station
Overcast Overcast  
Wind Chill: 44°   Ceiling: 4200
Heat Index: 48°   Visibility: 10mi
Dew Point: 41°   Wind: 9mph
Humidity: 77%   Direction: 170°S
Pressure: 30.07"   Gusts: NA
Location:  48.75°N, 122.47°W
Report Text: KBLI 230653Z AUTO 17008KT 10SM BKN042 BKN050 OVC070 09/05 A3007 RMK AO2 RAB21E44 SLP189 P0000 T00890050 TSNO
Loading
Personal Weather Stations






























Interactive Weather Map New forecast layout! Learn more

10-Day Weather Forecast

Advertisements
Track Severe Weather on mobile